Aeroporto :
LOGIN :

Iscrizione | Disclaimer

   EN    FR    IT 

 










Sommario :    VFR   VFR Marginale   IFR   IFR Intensivo   IFR Molto Intensivo
Visibilità : 
Base nubi : 
>= 8 km
>= 3000ft
5 / 8 km
1000 / 3000 ft
1500m / 5 km
500 / 1000 ft
800 / 1500m
200 / 500 ft
< 800m
< 200 ft
Simboli :   Temporali  Nebbia  Neve Forte  Precipitazioni Forti  Vento > 20 kt
SIGMETs :   Varie  Temporali  Ghiacco  Turbolenza  Onda orograficha  Ceneri Vulcaniche






- Altitudine del aeroporto : 424 ft
- Codice IATA : QGY


LHPR - Györ Per

ULTIMO METAR :
  • 101315Z AUTO 33014KT 290V010 CAVOK 19/03 Q1022

METARs OBSOLETI :
  • 101245Z AUTO 32015KT 300V010 CAVOK 19/02 Q1022
  • 101215Z AUTO 32014KT 300V360 CAVOK 19/02 Q1023
  • 101145Z AUTO 33015G25KT 270V350 CAVOK 18/03 Q1023
  • 101115Z AUTO 33013KT 290V030 CAVOK 18/03 Q1023
  • 101045Z AUTO 34015KT 310V010 CAVOK 18/02 Q1024

TAF TAF LHPR
Valido dal 10 a 12 ore il 10 a 21 ore UTC


101115Z 1012/1021 34015KT CAVOK
BECMG 1015/1018 04005KT



MetMap, La meteo Aeronautica in un colpo d'occhio ! - Copyright ORBIFLY Dicembre 2007 - Disclaimer

ORBIFLY MET'MAP TEAM :

Programmazione e sviluppo : Alexandra Zaïnal
Concezione : Baudouin d'Aumeries
Aiuto per la programmazione : Marc-Olivier Méhu
Supporto tecnico e logistico : Manuel Goepfert
Aiuto per la traduzione : Arnaldo La Scala

Contatto : metmap@orbifly.com




FONTI E CREDITI :

   NOAA